createdAt,value
2022-08-11T00:01:17.986Z,4.85
2022-08-11T00:06:15.388Z,4.13
2022-08-11T00:11:12.589Z,4.38
2022-08-11T00:16:13.972Z,4.22
2022-08-11T00:21:11.711Z,4.38
2022-08-11T00:26:08.144Z,4.30
2022-08-11T00:31:05.510Z,4.00
2022-08-11T00:36:03.122Z,4.07
2022-08-11T00:41:28.779Z,4.05
2022-08-11T00:46:25.020Z,4.00
2022-08-11T00:52:04.013Z,4.18
2022-08-11T00:57:37.532Z,4.00
2022-08-11T01:02:50.346Z,4.40
2022-08-11T01:08:01.806Z,4.25
2022-08-11T01:13:25.923Z,4.03
2022-08-11T01:18:28.363Z,3.93
2022-08-11T01:23:28.176Z,3.80
2022-08-11T01:28:44.754Z,3.83
2022-08-11T01:33:47.047Z,3.88
2022-08-11T01:38:58.242Z,4.00
2022-08-11T01:44:22.282Z,4.40
2022-08-11T01:49:58.615Z,4.40
2022-08-11T01:54:50.329Z,3.92
2022-08-11T01:59:51.748Z,3.80
2022-08-11T02:05:03.028Z,3.67
2022-08-11T02:10:38.221Z,3.58
2022-08-11T02:15:38.191Z,3.80
2022-08-11T02:21:02.143Z,4.07
2022-08-11T02:25:59.427Z,4.00
2022-08-11T02:32:14.226Z,4.78
2022-08-11T02:36:42.026Z,4.40
2022-08-11T02:42:00.211Z,4.50
2022-08-11T02:47:01.596Z,4.70
2022-08-11T02:52:18.107Z,4.45
2022-08-11T02:57:34.499Z,4.50
2022-08-11T03:02:50.113Z,4.80
2022-08-11T03:08:01.324Z,4.47
2022-08-11T03:13:35.443Z,4.28
2022-08-11T03:18:38.054Z,4.45
2022-08-11T03:23:39.244Z,4.80
2022-08-11T03:28:51.394Z,4.70
2022-08-11T03:34:06.641Z,4.73
2022-08-11T03:39:03.632Z,5.00
2022-08-11T03:43:59.881Z,5.00
2022-08-11T03:49:19.737Z,4.70
2022-08-11T03:54:29.463Z,4.90
2022-08-11T03:59:37.713Z,5.07
2022-08-11T04:04:35.500Z,5.32
2022-08-11T04:09:41.188Z,5.13
2022-08-11T04:15:08.494Z,5.55
2022-08-11T04:20:24.025Z,5.13
2022-08-11T04:25:34.967Z,5.45
2022-08-11T04:30:58.655Z,5.03
2022-08-11T04:35:58.961Z,5.22
2022-08-11T04:41:15.060Z,5.30
2022-08-11T04:46:18.918Z,4.80
2022-08-11T04:51:52.772Z,5.88
2022-08-11T04:57:08.815Z,6.22
2022-08-11T05:02:31.586Z,6.35
2022-08-11T05:07:48.311Z,5.70
2022-08-11T05:12:47.659Z,5.45
2022-08-11T05:18:11.607Z,5.70
2022-08-11T05:23:28.792Z,5.93
2022-08-11T05:28:50.782Z,6.32
2022-08-11T05:34:07.384Z,6.65
2022-08-11T05:39:33.845Z,6.03
2022-08-11T05:44:53.735Z,6.22
2022-08-11T05:50:13.728Z,6.55
2022-08-11T05:55:31.969Z,6.13
2022-08-11T06:00:28.552Z,6.20
2022-08-11T06:05:25.388Z,5.38
2022-08-11T06:10:33.292Z,6.15
2022-08-11T06:15:31.079Z,5.78
2022-08-11T06:20:32.915Z,5.65
2022-08-11T06:25:35.753Z,5.95
2022-08-11T06:30:39.608Z,6.15
2022-08-11T06:35:46.208Z,5.78
2022-08-11T06:41:13.182Z,6.28
2022-08-11T06:46:10.762Z,6.03
2022-08-11T06:51:13.645Z,5.70
2022-08-11T06:56:31.946Z,6.25
2022-08-11T07:01:58.012Z,6.63
2022-08-11T07:07:20.946Z,7.20
2022-08-11T07:12:47.920Z,6.70
2022-08-11T07:18:09.743Z,6.65
2022-08-11T07:23:30.181Z,7.10
2022-08-11T07:28:48.258Z,7.85
2022-08-11T07:34:08.200Z,7.80
2022-08-11T07:39:08.369Z,7.82
2022-08-11T07:44:09.505Z,8.27
2022-08-11T07:49:28.189Z,8.30
2022-08-11T07:54:32.175Z,8.20
2022-08-11T08:00:03.330Z,8.60
2022-08-11T08:05:24.827Z,7.82
2022-08-11T08:10:40.179Z,8.10
2022-08-11T08:15:55.711Z,8.10
2022-08-11T08:21:12.204Z,7.80
2022-08-11T08:26:39.984Z,7.90
2022-08-11T08:31:38.299Z,7.88
2022-08-11T08:36:38.069Z,7.85
2022-08-11T08:41:47.312Z,7.97
2022-08-11T08:46:52.042Z,8.07
2022-08-11T08:51:54.751Z,8.40
2022-08-11T08:56:58.701Z,7.78
2022-08-11T09:02:01.916Z,8.48
2022-08-11T09:07:07.079Z,8.50
2022-08-11T09:12:10.482Z,8.95
2022-08-11T09:17:12.514Z,8.50
2022-08-11T09:22:30.091Z,8.68
2022-08-11T09:27:29.556Z,8.52
2022-08-11T09:32:39.399Z,8.30
2022-08-11T09:37:58.653Z,8.25
2022-08-11T09:43:17.643Z,8.00
2022-08-11T09:48:14.123Z,7.82
2022-08-11T09:53:35.923Z,7.95
2022-08-11T09:58:42.013Z,8.30
2022-08-11T10:03:41.207Z,8.60
2022-08-11T10:08:38.902Z,8.07
2022-08-11T10:14:31.462Z,8.50
2022-08-11T10:19:14.651Z,8.75
2022-08-11T10:24:30.664Z,8.98
2022-08-11T10:29:54.808Z,9.13
2022-08-11T10:34:54.549Z,8.50
2022-08-11T10:39:56.325Z,8.65
2022-08-11T10:44:53.708Z,9.13
2022-08-11T10:50:10.595Z,8.95
2022-08-11T10:55:25.710Z,9.50
2022-08-11T11:00:23.907Z,8.70
2022-08-11T11:05:28.789Z,9.40
2022-08-11T11:10:25.176Z,8.75
2022-08-11T11:15:42.197Z,8.73
2022-08-11T11:20:47.500Z,9.35
2022-08-11T11:26:06.319Z,8.80
2022-08-11T11:31:10.727Z,9.20
2022-08-11T11:36:18.104Z,8.13
2022-08-11T11:41:26.975Z,9.00
2022-08-11T11:46:29.961Z,8.80
2022-08-11T11:51:27.512Z,8.93
2022-08-11T11:56:24.744Z,8.65
2022-08-11T12:01:25.112Z,8.77
2022-08-11T12:06:23.166Z,8.43
2022-08-11T12:11:38.403Z,9.35
2022-08-11T12:16:36.971Z,8.82
2022-08-11T12:21:34.509Z,8.75
2022-08-11T12:27:02.782Z,8.40
2022-08-11T12:32:07.033Z,8.52
2022-08-11T12:37:05.655Z,8.68
2022-08-11T12:42:20.299Z,8.95
2022-08-11T12:47:17.957Z,8.98
2022-08-11T12:52:19.055Z,8.40
2022-08-11T13:02:52.917Z,8.35
2022-08-11T13:07:50.901Z,9.23
2022-08-11T13:12:47.910Z,7.97
2022-08-11T13:17:44.646Z,8.40
2022-08-11T13:22:45.642Z,8.35
2022-08-11T13:27:43.034Z,8.60
2022-08-11T13:32:40.524Z,8.18
2022-08-11T13:38:17.520Z,9.25
2022-08-11T13:42:58.896Z,8.15
2022-08-11T13:47:56.226Z,7.93
2022-08-11T13:52:53.272Z,8.38
2022-08-11T13:58:08.676Z,7.70
2022-08-11T14:03:09.546Z,8.95
2022-08-11T14:08:09.475Z,8.38
2022-08-11T14:13:41.670Z,8.40
2022-08-11T14:18:43.181Z,7.97
2022-08-11T14:23:41.088Z,8.70
2022-08-11T14:28:44.029Z,8.05
2022-08-11T14:33:59.505Z,8.27
2022-08-11T14:38:58.156Z,8.65
2022-08-11T14:44:15.020Z,8.50
2022-08-11T14:49:12.592Z,8.00
2022-08-11T14:54:28.330Z,8.40
2022-08-11T14:59:24.743Z,8.90
2022-08-11T15:04:36.038Z,8.52
2022-08-11T15:09:34.384Z,8.13
2022-08-11T15:14:56.120Z,8.02
2022-08-11T15:20:11.719Z,7.45
2022-08-11T15:25:09.196Z,8.10
2022-08-11T15:30:32.867Z,7.97
2022-08-11T15:35:49.036Z,8.75
2022-08-11T15:41:04.040Z,8.10
2022-08-11T15:46:03.695Z,7.70
2022-08-11T15:51:10.143Z,8.43
2022-08-11T15:56:06.846Z,8.40
2022-08-11T16:01:22.938Z,8.13
2022-08-11T16:06:19.702Z,7.55
2022-08-11T16:11:19.583Z,7.40
2022-08-11T16:16:16.400Z,7.40
2022-08-11T16:21:33.567Z,7.75
2022-08-11T16:27:08.056Z,8.13
2022-08-11T16:32:09.271Z,8.70
2022-08-11T16:37:24.428Z,8.60
2022-08-11T16:43:05.194Z,7.55
2022-08-11T16:48:03.632Z,8.48
2022-08-11T16:53:12.251Z,8.07
2022-08-11T16:58:27.719Z,8.48
2022-08-11T17:03:46.349Z,8.55
2022-08-11T17:09:10.080Z,8.50
2022-08-11T17:14:17.128Z,8.85
2022-08-11T17:19:16.461Z,8.25
2022-08-11T17:24:14.314Z,8.32
2022-08-11T17:29:10.947Z,8.82
2022-08-11T17:34:26.295Z,8.25
2022-08-11T17:39:29.269Z,9.75
2022-08-11T17:44:46.474Z,7.93
2022-08-11T17:49:42.979Z,7.82
2022-08-11T17:54:58.122Z,7.90
2022-08-11T17:59:57.783Z,8.32
2022-08-11T18:04:54.168Z,8.23
2022-08-11T18:10:09.139Z,7.00
2022-08-11T18:15:24.518Z,7.25
2022-08-11T18:20:47.115Z,6.72
2022-08-11T18:26:07.257Z,7.35
2022-08-11T18:31:24.149Z,7.07
2022-08-11T18:36:41.470Z,6.65
2022-08-11T18:41:57.022Z,7.30
2022-08-11T18:47:12.021Z,6.60
2022-08-11T18:52:27.573Z,6.57
2022-08-11T18:57:49.390Z,6.80
2022-08-11T19:03:05.919Z,6.45
2022-08-11T19:08:21.892Z,6.78
2022-08-11T19:13:41.438Z,7.25
2022-08-11T19:18:59.509Z,7.18
2022-08-11T19:24:15.545Z,7.30
2022-08-11T19:30:07.703Z,7.07
2022-08-11T19:35:07.091Z,7.05
2022-08-11T19:40:24.067Z,6.97
2022-08-11T19:45:39.368Z,6.55
2022-08-11T19:50:54.507Z,6.88
2022-08-11T19:56:11.032Z,6.72
2022-08-11T20:01:25.964Z,6.57
2022-08-11T20:06:42.002Z,6.32
2022-08-11T20:12:03.329Z,6.88
2022-08-11T20:17:18.618Z,6.65
2022-08-11T20:22:34.650Z,6.20
2022-08-11T20:27:55.447Z,6.15
2022-08-11T20:33:11.080Z,5.90
2022-08-11T20:38:26.656Z,5.90
2022-08-11T20:44:05.765Z,6.88
2022-08-11T20:49:18.140Z,7.22
2022-08-11T20:54:38.160Z,6.30
2022-08-11T20:59:59.250Z,6.18
2022-08-11T21:05:15.767Z,5.75
2022-08-11T21:10:34.587Z,5.97
2022-08-11T21:16:01.301Z,5.93
2022-08-11T21:21:18.582Z,6.20
2022-08-11T21:26:34.998Z,5.80
2022-08-11T21:31:51.034Z,5.75
2022-08-11T21:37:06.602Z,5.70
2022-08-11T21:42:22.215Z,6.00
2022-08-11T21:47:43.397Z,5.50
2022-08-11T21:52:59.965Z,5.70
2022-08-11T21:58:16.035Z,5.30
2022-08-11T22:03:36.507Z,5.20
2022-08-11T22:09:05.167Z,5.43
2022-08-11T22:14:20.865Z,5.35
2022-08-11T22:19:35.991Z,5.82
2022-08-11T22:24:52.122Z,5.20
2022-08-11T22:30:07.602Z,4.93
2022-08-11T22:35:23.259Z,5.25
2022-08-11T22:40:38.360Z,5.10
2022-08-11T22:45:53.400Z,4.97
2022-08-11T22:51:09.637Z,4.70
2022-08-11T22:56:32.060Z,4.93
2022-08-11T23:01:56.252Z,4.70
2022-08-11T23:07:13.230Z,4.88
2022-08-11T23:12:47.962Z,5.22
2022-08-11T23:18:03.001Z,5.05
2022-08-11T23:23:18.576Z,4.97
2022-08-11T23:28:34.263Z,4.57
2022-08-11T23:33:50.333Z,4.88
2022-08-11T23:39:05.411Z,5.35
2022-08-11T23:44:21.399Z,4.82
2022-08-11T23:49:36.735Z,4.85
2022-08-11T23:54:52.943Z,4.75
